Columbus, New Jersey
Current Conditions -  °F | °C
As of 11:58 PM on Saturday 25 Oct 2014 (Local Time) from KWRI Reporting Station
Clear Clear  
Wind Chill: 54°   Ceiling: Unl
Heat Index: 54°   Visibility: 10mi
Dew Point: 43°   Wind: 8mph
Humidity: 67%   Direction: 220°SW
Pressure: 29.6"   Gusts: NA
Location:  40.07°N, 74.72°W
Report Text: KWRI 260358Z AUTO 22007KT 10SM CLR 12/06 A2960 RMK AO2 SLP027 T01210061 $
Loading
Personal Weather Stations






























Interactive Weather Map
Tropical Storm Tracking
New forecast layout! Learn more

10-Day Weather Forecast

Advertisements
Track Severe Weather on mobile